createdAt,value
2018-06-04T00:01:26.700Z,17.73
2018-06-04T00:03:55.443Z,18.77
2018-06-04T00:06:24.509Z,16.53
2018-06-04T00:08:53.435Z,20.67
2018-06-04T00:11:22.411Z,18.53
2018-06-04T00:13:51.611Z,19.97
2018-06-04T00:16:20.632Z,19.90
2018-06-04T00:18:49.598Z,21.63
2018-06-04T00:21:18.699Z,18.13
2018-06-04T00:23:47.766Z,18.83
2018-06-04T00:26:16.700Z,21.03
2018-06-04T00:28:45.647Z,19.83
2018-06-04T00:31:14.599Z,21.70
2018-06-04T00:33:43.616Z,15.50
2018-06-04T00:36:13.186Z,29.77
2018-06-04T00:38:42.146Z,22.47
2018-06-04T00:41:11.070Z,17.53
2018-06-04T00:43:39.999Z,18.00
2018-06-04T00:46:09.022Z,26.87
2018-06-04T00:48:37.953Z,18.00
2018-06-04T00:51:06.898Z,21.83
2018-06-04T00:53:36.026Z,19.90
2018-06-04T00:56:16.239Z,18.30
2018-06-04T00:58:45.593Z,20.10
2018-06-04T01:01:15.010Z,20.20
2018-06-04T01:03:43.696Z,18.33
2018-06-04T01:06:12.475Z,20.77
2018-06-04T01:08:41.469Z,18.40
2018-06-04T01:11:10.474Z,21.63
2018-06-04T01:13:39.599Z,17.90
2018-06-04T01:16:08.532Z,22.40
2018-06-04T01:18:37.562Z,16.77
2018-06-04T01:21:06.598Z,15.93
2018-06-04T01:23:35.630Z,18.10
2018-06-04T01:26:11.545Z,19.50
2018-06-04T01:28:40.495Z,18.20
2018-06-04T01:31:09.482Z,18.73
2018-06-04T01:33:38.430Z,16.37
2018-06-04T01:36:07.559Z,16.77
2018-06-04T01:38:36.500Z,17.30
2018-06-04T01:41:05.504Z,20.37
2018-06-04T01:43:34.546Z,21.53
2018-06-04T01:46:03.537Z,18.23
2018-06-04T01:48:32.462Z,18.37
2018-06-04T01:51:01.500Z,18.47
2018-06-04T01:53:30.440Z,19.43
2018-06-04T01:55:59.371Z,18.80
2018-06-04T01:58:28.287Z,22.40
2018-06-04T02:00:57.235Z,19.90
2018-06-04T02:03:26.127Z,20.10
2018-06-04T02:05:55.150Z,20.47
2018-06-04T02:08:24.099Z,23.87
2018-06-04T02:10:53.010Z,21.53
2018-06-04T02:13:21.941Z,20.83
2018-06-04T02:15:50.910Z,21.50
2018-06-04T02:18:19.887Z,24.07
2018-06-04T02:20:48.826Z,22.60
2018-06-04T02:23:17.754Z,23.17
2018-06-04T02:25:46.754Z,21.87
2018-06-04T02:28:15.738Z,23.37
2018-06-04T02:30:44.834Z,21.40
2018-06-04T02:33:13.814Z,19.73
2018-06-04T02:35:42.750Z,22.03
2018-06-04T02:38:11.738Z,23.60
2018-06-04T02:40:40.782Z,25.13
2018-06-04T02:43:09.829Z,23.90
2018-06-04T02:45:38.930Z,24.43
2018-06-04T02:48:08.005Z,29.97
2018-06-04T02:50:36.914Z,27.53
2018-06-04T02:53:05.912Z,25.57
2018-06-04T02:55:34.943Z,32.87
2018-06-04T02:58:03.926Z,25.03
2018-06-04T03:00:32.875Z,25.17
2018-06-04T03:03:01.847Z,22.33
2018-06-04T03:05:30.851Z,24.20
2018-06-04T03:07:59.543Z,25.03
2018-06-04T03:10:28.307Z,24.70
2018-06-04T03:12:57.331Z,27.80
2018-06-04T03:15:26.282Z,27.83
2018-06-04T03:17:55.233Z,25.57
2018-06-04T03:20:24.151Z,24.97
2018-06-04T03:22:53.131Z,23.60
2018-06-04T03:25:22.170Z,24.10
2018-06-04T03:27:51.119Z,21.67
2018-06-04T03:30:20.152Z,26.93
2018-06-04T03:32:49.232Z,23.30
2018-06-04T03:35:18.230Z,21.37
2018-06-04T03:37:47.223Z,24.27
2018-06-04T03:40:15.912Z,25.43
2018-06-04T03:42:44.721Z,23.80
2018-06-04T03:45:13.672Z,24.53
2018-06-04T03:47:42.898Z,27.23
2018-06-04T03:50:11.995Z,24.33
2018-06-04T03:52:40.937Z,27.47
2018-06-04T03:55:09.875Z,25.17
2018-06-04T03:57:39.300Z,26.63
2018-06-04T04:00:08.369Z,26.77
2018-06-04T04:02:37.359Z,21.33
2018-06-04T04:05:06.488Z,19.17
2018-06-04T04:07:35.635Z,15.27
2018-06-04T04:10:04.883Z,22.47
2018-06-04T04:12:33.879Z,20.03
2018-06-04T04:15:02.981Z,24.93
2018-06-04T04:17:31.883Z,27.67
2018-06-04T04:20:01.089Z,22.70
2018-06-04T04:22:30.207Z,26.63
2018-06-04T04:24:59.161Z,24.20
2018-06-04T04:27:28.134Z,25.47
2018-06-04T04:29:57.298Z,23.97
2018-06-04T04:32:26.237Z,18.33
2018-06-04T04:34:55.185Z,25.13
2018-06-04T04:37:24.153Z,26.23
2018-06-04T04:39:53.101Z,25.43
2018-06-04T04:42:22.123Z,22.07
2018-06-04T04:44:51.047Z,26.13
2018-06-04T04:47:19.985Z,24.43
2018-06-04T04:49:48.922Z,26.00
2018-06-04T04:52:17.931Z,24.77
2018-06-04T04:54:46.906Z,27.07
2018-06-04T04:57:16.095Z,25.67
2018-06-04T04:59:45.154Z,26.23
2018-06-04T05:02:14.288Z,27.80
2018-06-04T05:04:42.985Z,27.70
2018-06-04T05:07:11.714Z,23.60
2018-06-04T05:09:40.656Z,25.37
2018-06-04T05:12:09.990Z,26.10
2018-06-04T05:14:38.957Z,29.17
2018-06-04T05:17:07.862Z,27.93
2018-06-04T05:19:36.962Z,21.43
2018-06-04T05:22:05.966Z,25.73
2018-06-04T05:24:34.919Z,29.23
2018-06-04T05:27:03.850Z,26.47
2018-06-04T05:29:33.007Z,23.30
2018-06-04T05:32:01.983Z,22.87
2018-06-04T05:34:30.949Z,25.37
2018-06-04T05:37:00.237Z,29.60
2018-06-04T05:39:29.252Z,28.73
2018-06-04T05:41:58.183Z,29.97
2018-06-04T05:44:27.323Z,28.90
2018-06-04T05:46:56.339Z,29.73
2018-06-04T05:49:25.392Z,22.90
2018-06-04T05:51:54.370Z,21.60
2018-06-04T05:54:23.382Z,28.77
2018-06-04T05:56:52.545Z,26.53
2018-06-04T05:59:21.440Z,20.67
2018-06-04T06:01:50.398Z,29.97
2018-06-04T06:04:19.306Z,27.30
2018-06-04T06:06:48.588Z,27.93
2018-06-04T06:09:17.547Z,31.43
2018-06-04T06:11:46.578Z,32.10
2018-06-04T06:14:15.627Z,27.27
2018-06-04T06:16:44.639Z,29.23
2018-06-04T06:19:13.649Z,26.67
2018-06-04T06:21:42.785Z,25.40
2018-06-04T06:24:12.055Z,31.70
2018-06-04T06:26:40.999Z,32.37
2018-06-04T06:29:09.965Z,28.77
2018-06-04T06:31:38.883Z,36.73
2018-06-04T06:34:07.844Z,35.13
2018-06-04T06:36:37.655Z,33.33
2018-06-04T06:39:13.008Z,33.63
2018-06-04T06:41:41.933Z,36.13
2018-06-04T06:44:10.653Z,32.53
2018-06-04T06:46:39.515Z,33.80
2018-06-04T06:49:08.433Z,37.83
2018-06-04T06:51:37.394Z,31.73
2018-06-04T06:54:06.387Z,38.00
2018-06-04T06:56:35.363Z,29.63
2018-06-04T06:59:04.369Z,33.27
2018-06-04T07:01:33.152Z,28.03
2018-06-04T07:04:01.830Z,37.73
2018-06-04T07:06:30.982Z,36.80
2018-06-04T07:08:59.936Z,33.70
2018-06-04T07:11:28.970Z,30.10
2018-06-04T07:13:57.998Z,36.77
2018-06-04T07:16:26.982Z,37.53
2018-06-04T07:18:56.142Z,38.03
2018-06-04T07:21:25.098Z,38.73
2018-06-04T07:23:54.210Z,37.03
2018-06-04T07:26:23.313Z,34.07
2018-06-04T07:28:52.238Z,34.10
2018-06-04T07:31:21.188Z,35.63
2018-06-04T07:33:50.161Z,32.10
2018-06-04T07:36:19.242Z,35.33
2018-06-04T07:38:48.227Z,35.30
2018-06-04T07:41:24.086Z,33.20
2018-06-04T07:43:52.986Z,34.03
2018-06-04T07:46:22.033Z,36.73
2018-06-04T07:48:51.094Z,36.43
2018-06-04T07:51:20.086Z,36.43
2018-06-04T07:53:49.026Z,36.20
2018-06-04T07:56:18.045Z,38.47
2018-06-04T07:58:46.985Z,35.90
2018-06-04T08:01:16.014Z,33.13
2018-06-04T08:03:44.994Z,33.90
2018-06-04T08:06:13.949Z,35.10
2018-06-04T08:08:42.903Z,36.13
2018-06-04T08:11:11.585Z,33.37
2018-06-04T08:13:40.253Z,35.47
2018-06-04T08:16:09.312Z,34.17
2018-06-04T08:18:38.384Z,31.70
2018-06-04T08:21:07.402Z,31.20
2018-06-04T08:23:36.435Z,32.90
2018-06-04T08:26:05.473Z,26.43
2018-06-04T08:28:34.432Z,19.60
2018-06-04T08:31:03.126Z,28.87
2018-06-04T08:33:31.826Z,29.23
2018-06-04T08:36:00.810Z,28.73
2018-06-04T08:38:29.864Z,32.27
2018-06-04T08:40:58.758Z,31.63
2018-06-04T08:43:27.699Z,31.20
2018-06-04T08:45:56.678Z,24.83
2018-06-04T08:48:25.632Z,27.33
2018-06-04T08:50:54.749Z,25.27
2018-06-04T08:53:23.817Z,30.07
2018-06-04T08:55:52.790Z,25.77
2018-06-04T08:58:22.078Z,34.30
2018-06-04T09:00:50.978Z,26.37
2018-06-04T09:03:20.026Z,27.47
2018-06-04T09:05:49.097Z,26.67
2018-06-04T09:08:18.046Z,25.70
2018-06-04T09:10:46.982Z,20.60
2018-06-04T09:13:16.027Z,26.50
2018-06-04T09:15:45.082Z,23.07
2018-06-04T09:18:14.027Z,26.57
2018-06-04T09:20:42.947Z,22.87
2018-06-04T09:23:11.927Z,23.70
2018-06-04T09:25:40.965Z,25.23
2018-06-04T09:28:09.971Z,28.90
2018-06-04T09:30:38.921Z,19.20
2018-06-04T09:33:07.865Z,22.93
2018-06-04T09:35:37.072Z,19.97
2018-06-04T09:38:06.018Z,20.77
2018-06-04T09:40:35.019Z,22.77
2018-06-04T09:43:04.087Z,22.00
2018-06-04T09:45:32.759Z,22.80
2018-06-04T09:48:01.783Z,27.70
2018-06-04T09:50:30.750Z,24.67
2018-06-04T09:52:59.695Z,28.93
2018-06-04T09:55:28.695Z,24.77
2018-06-04T09:57:57.732Z,25.20
2018-06-04T10:00:26.798Z,20.67
2018-06-04T10:02:55.683Z,24.73
2018-06-04T10:05:24.740Z,22.50
2018-06-04T10:07:53.802Z,24.90
2018-06-04T10:10:22.902Z,20.10
2018-06-04T10:12:52.059Z,23.80
2018-06-04T10:15:21.225Z,24.70
2018-06-04T10:17:50.170Z,18.87
2018-06-04T10:20:19.152Z,22.93
2018-06-04T10:22:48.046Z,22.93
2018-06-04T10:25:17.171Z,28.27
2018-06-04T10:27:46.086Z,25.90
2018-06-04T10:30:15.044Z,29.87
2018-06-04T10:32:44.350Z,26.73
2018-06-04T10:35:13.467Z,32.17
2018-06-04T10:37:42.441Z,30.03
2018-06-04T10:40:11.435Z,30.40
2018-06-04T10:42:40.431Z,29.13
2018-06-04T10:45:09.338Z,27.60
2018-06-04T10:47:38.319Z,25.97
2018-06-04T10:50:07.439Z,26.30
2018-06-04T10:52:36.787Z,26.13
2018-06-04T10:55:06.185Z,32.27
2018-06-04T10:57:35.263Z,28.40
2018-06-04T11:00:04.760Z,31.10
2018-06-04T11:02:33.724Z,27.03
2018-06-04T11:05:02.699Z,26.33
2018-06-04T11:07:31.707Z,28.20
2018-06-04T11:10:00.730Z,28.87
2018-06-04T11:12:29.738Z,22.80
2018-06-04T11:14:58.665Z,29.20
2018-06-04T11:17:27.756Z,30.53
2018-06-04T11:19:56.734Z,24.40
2018-06-04T11:22:26.011Z,28.23
2018-06-04T11:24:54.950Z,29.07
2018-06-04T11:27:23.891Z,28.60
2018-06-04T11:29:52.819Z,24.73
2018-06-04T11:32:21.758Z,22.20
2018-06-04T11:34:50.870Z,26.20
2018-06-04T11:37:19.840Z,27.40
2018-06-04T11:39:49.039Z,28.83
2018-06-04T11:42:17.997Z,28.63
2018-06-04T11:44:46.951Z,29.80
2018-06-04T11:47:15.985Z,27.97
2018-06-04T11:49:45.003Z,32.27
2018-06-04T11:52:14.012Z,30.60
2018-06-04T11:54:42.982Z,23.97
2018-06-04T11:57:12.092Z,29.43
2018-06-04T11:59:41.087Z,33.90
2018-06-04T12:02:10.086Z,30.67
2018-06-04T12:04:39.101Z,27.93
2018-06-04T12:07:08.046Z,28.70
2018-06-04T12:09:37.008Z,29.63
2018-06-04T12:12:06.027Z,29.23
2018-06-04T12:14:35.065Z,29.30
2018-06-04T12:17:04.019Z,33.80
2018-06-04T12:19:32.961Z,30.83
2018-06-04T12:22:01.934Z,33.07
2018-06-04T12:24:31.042Z,31.27
2018-06-04T12:27:00.021Z,29.50
2018-06-04T12:29:28.963Z,39.40
2018-06-04T12:31:57.982Z,29.27
2018-06-04T12:34:26.936Z,30.73
2018-06-04T12:36:56.062Z,28.43
2018-06-04T12:39:24.792Z,30.67
2018-06-04T12:41:53.641Z,37.10
2018-06-04T12:44:22.625Z,28.87
2018-06-04T12:46:51.618Z,30.33
2018-06-04T12:49:20.533Z,32.00
2018-06-04T12:51:49.506Z,30.00
2018-06-04T12:54:18.485Z,34.37
2018-06-04T12:56:47.506Z,27.33
2018-06-04T12:59:16.534Z,22.50
2018-06-04T13:01:45.654Z,31.63
2018-06-04T13:04:14.613Z,28.43
2018-06-04T13:06:43.661Z,27.57
2018-06-04T13:09:12.586Z,26.27
2018-06-04T13:11:41.550Z,29.17
2018-06-04T13:14:10.530Z,25.47
2018-06-04T13:16:39.619Z,28.63
2018-06-04T13:19:08.625Z,21.87
2018-06-04T13:21:37.662Z,23.90
2018-06-04T13:24:06.746Z,27.03
2018-06-04T13:26:35.782Z,30.20
2018-06-04T13:29:04.938Z,28.93
2018-06-04T13:31:34.085Z,27.57
2018-06-04T13:34:03.186Z,26.50
2018-06-04T13:36:32.146Z,24.77
2018-06-04T13:39:01.325Z,31.37
2018-06-04T13:41:30.254Z,25.93
2018-06-04T13:43:59.298Z,23.10
2018-06-04T13:46:28.366Z,23.10
2018-06-04T13:48:57.594Z,26.57
2018-06-04T13:51:26.585Z,23.53
2018-06-04T13:53:55.634Z,26.90
2018-06-04T13:56:24.767Z,24.53
2018-06-04T13:58:53.746Z,20.83
2018-06-04T14:01:22.674Z,19.73
2018-06-04T14:03:51.676Z,20.90
2018-06-04T14:06:20.641Z,21.97
2018-06-04T14:08:49.665Z,18.30
2018-06-04T14:11:18.626Z,20.47
2018-06-04T14:13:47.602Z,22.83
2018-06-04T14:16:16.539Z,24.90
2018-06-04T14:18:45.681Z,24.17
2018-06-04T14:21:14.931Z,23.97
2018-06-04T14:23:43.986Z,23.70
2018-06-04T14:26:13.072Z,23.83
2018-06-04T14:28:42.119Z,20.03
2018-06-04T14:31:10.818Z,23.43
2018-06-04T14:33:39.653Z,20.13
2018-06-04T14:36:08.598Z,23.17
2018-06-04T14:38:37.525Z,23.07
2018-06-04T14:41:06.545Z,24.23
2018-06-04T14:43:35.525Z,25.50
2018-06-04T14:46:04.671Z,23.27
2018-06-04T14:48:33.624Z,18.00
2018-06-04T14:51:02.907Z,21.63
2018-06-04T14:53:31.854Z,23.93
2018-06-04T14:56:01.218Z,24.10
2018-06-04T14:58:30.170Z,24.20
2018-06-04T15:00:59.166Z,24.60
2018-06-04T15:03:28.177Z,23.23
2018-06-04T15:05:57.625Z,20.70
2018-06-04T15:08:26.574Z,22.30
2018-06-04T15:10:55.608Z,25.17
2018-06-04T15:13:24.764Z,22.27
2018-06-04T15:15:53.765Z,27.47
2018-06-04T15:18:22.852Z,22.43
2018-06-04T15:20:51.853Z,20.90
2018-06-04T15:23:20.889Z,22.53
2018-06-04T15:25:49.851Z,25.53
2018-06-04T15:28:18.833Z,23.20
2018-06-04T15:30:47.769Z,23.93
2018-06-04T15:33:16.750Z,23.43
2018-06-04T15:35:45.865Z,26.07
2018-06-04T15:38:14.858Z,27.93
2018-06-04T15:40:43.947Z,23.87
2018-06-04T15:43:13.010Z,26.10
2018-06-04T15:45:42.040Z,26.77
2018-06-04T15:48:11.144Z,26.80
2018-06-04T15:50:40.294Z,24.43
2018-06-04T15:53:09.009Z,23.70
2018-06-04T15:55:37.778Z,18.43
2018-06-04T15:58:06.902Z,23.97
2018-06-04T16:00:36.027Z,23.17
2018-06-04T16:03:05.127Z,25.83
2018-06-04T16:05:34.101Z,27.80
2018-06-04T16:08:03.135Z,23.00
2018-06-04T16:10:32.101Z,21.13
2018-06-04T16:13:01.273Z,22.80
2018-06-04T16:15:30.230Z,24.37
2018-06-04T16:17:59.162Z,25.97
2018-06-04T16:20:28.117Z,24.17
2018-06-04T16:22:57.064Z,21.47
2018-06-04T16:25:26.018Z,16.73
2018-06-04T16:27:55.072Z,20.23
2018-06-04T16:30:24.066Z,21.17
2018-06-04T16:32:53.095Z,19.83
2018-06-04T16:35:22.160Z,22.73
2018-06-04T16:37:51.158Z,18.67
2018-06-04T16:40:19.891Z,20.87
2018-06-04T16:42:48.735Z,18.57
2018-06-04T16:45:17.853Z,21.07
2018-06-04T16:47:46.772Z,14.33
2018-06-04T16:50:16.068Z,23.73
2018-06-04T16:52:45.150Z,17.83
2018-06-04T16:55:14.157Z,17.87
2018-06-04T16:57:43.151Z,23.53
2018-06-04T17:00:12.358Z,20.83
2018-06-04T17:02:41.467Z,25.50
2018-06-04T17:05:10.628Z,28.17
2018-06-04T17:07:39.856Z,22.47
2018-06-04T17:10:08.977Z,18.63
2018-06-04T17:12:38.038Z,19.83
2018-06-04T17:15:07.038Z,21.47
2018-06-04T17:17:36.170Z,20.70
2018-06-04T17:20:05.149Z,21.97
2018-06-04T17:22:34.248Z,17.10
2018-06-04T17:25:03.287Z,18.17
2018-06-04T17:27:32.464Z,19.37
2018-06-04T17:30:01.626Z,21.03
2018-06-04T17:32:30.630Z,19.03
2018-06-04T17:34:59.590Z,14.07
2018-06-04T17:37:28.304Z,15.37
2018-06-04T17:39:57.078Z,15.10
2018-06-04T17:42:26.028Z,17.73
2018-06-04T17:44:54.989Z,16.67
2018-06-04T17:47:23.934Z,15.83
2018-06-04T17:49:52.989Z,18.87
2018-06-04T17:52:21.938Z,15.03
2018-06-04T17:54:50.904Z,17.47
2018-06-04T17:57:19.590Z,10.77
2018-06-04T17:59:48.364Z,15.37
2018-06-04T18:02:17.445Z,17.80
2018-06-04T18:04:46.482Z,14.40
2018-06-04T18:07:15.487Z,13.10
2018-06-04T18:09:44.433Z,12.07
2018-06-04T18:12:13.351Z,14.47
2018-06-04T18:14:42.433Z,13.37
2018-06-04T18:17:11.423Z,17.00
2018-06-04T18:19:40.416Z,14.63
2018-06-04T18:22:09.369Z,17.97
2018-06-04T18:24:38.350Z,13.87
2018-06-04T18:27:07.734Z,16.77
2018-06-04T18:29:36.722Z,15.00
2018-06-04T18:32:05.702Z,18.07
2018-06-04T18:34:34.675Z,17.40
2018-06-04T18:37:03.670Z,14.10
2018-06-04T18:39:32.666Z,14.10
2018-06-04T18:42:01.701Z,15.93
2018-06-04T18:44:30.705Z,13.03
2018-06-04T18:46:59.776Z,16.77
2018-06-04T18:49:30.538Z,15.07
2018-06-04T18:51:59.552Z,16.13
2018-06-04T18:54:28.567Z,17.57
2018-06-04T18:56:57.718Z,14.80
2018-06-04T18:59:26.842Z,14.13
2018-06-04T19:01:56.309Z,22.53
2018-06-04T19:04:25.349Z,15.17
2018-06-04T19:06:54.121Z,18.13
2018-06-04T19:09:22.983Z,13.80
2018-06-04T19:11:51.958Z,14.70
2018-06-04T19:14:21.018Z,15.90
2018-06-04T19:16:50.020Z,15.07
2018-06-04T19:19:19.011Z,12.60
2018-06-04T19:21:47.697Z,11.13
2018-06-04T19:24:16.474Z,12.33
2018-06-04T19:26:45.552Z,12.87
2018-06-04T19:29:14.691Z,12.00
2018-06-04T19:31:43.679Z,15.07
2018-06-04T19:34:13.093Z,14.50
2018-06-04T19:36:42.127Z,14.27
2018-06-04T19:39:11.516Z,12.57
2018-06-04T19:41:40.606Z,11.90
2018-06-04T19:44:09.763Z,12.30
2018-06-04T19:46:40.372Z,17.77
2018-06-04T19:49:09.622Z,13.83
2018-06-04T19:51:38.565Z,9.03
2018-06-04T19:54:07.585Z,12.47
2018-06-04T19:56:36.724Z,9.93
2018-06-04T19:59:06.098Z,13.77
2018-06-04T20:01:35.488Z,14.90
2018-06-04T20:04:04.919Z,13.43
2018-06-04T20:06:33.926Z,12.90
2018-06-04T20:09:03.282Z,14.73
2018-06-04T20:11:34.101Z,16.97
2018-06-04T20:14:05.002Z,17.70
2018-06-04T20:16:34.902Z,16.87
2018-06-04T20:19:04.711Z,15.10
2018-06-04T20:21:33.758Z,19.43
2018-06-04T20:24:02.842Z,15.50
2018-06-04T20:26:31.881Z,15.67
2018-06-04T20:29:00.973Z,15.47
2018-06-04T20:31:29.910Z,18.30
2018-06-04T20:33:59.966Z,13.87
2018-06-04T20:36:29.098Z,17.37
2018-06-04T20:38:58.030Z,14.87
2018-06-04T20:41:27.233Z,15.60
2018-06-04T20:43:56.193Z,16.93
2018-06-04T20:46:25.181Z,18.97
2018-06-04T20:48:54.291Z,17.30
2018-06-04T20:51:37.891Z,17.67
2018-06-04T20:54:07.042Z,16.70
2018-06-04T20:56:36.274Z,17.97
2018-06-04T20:59:05.390Z,15.63
2018-06-04T21:01:34.353Z,16.33
2018-06-04T21:04:03.452Z,20.73
2018-06-04T21:06:32.357Z,20.07
2018-06-04T21:09:01.374Z,17.80
2018-06-04T21:11:30.392Z,19.17
2018-06-04T21:13:59.486Z,20.47
2018-06-04T21:16:28.392Z,17.27
2018-06-04T21:18:57.414Z,18.33
2018-06-04T21:21:26.325Z,17.80
2018-06-04T21:23:55.418Z,18.43
2018-06-04T21:26:24.492Z,17.67
2018-06-04T21:28:53.454Z,16.07
2018-06-04T21:31:22.392Z,20.13
2018-06-04T21:33:51.487Z,17.97
2018-06-04T21:36:20.421Z,17.30
2018-06-04T21:38:49.378Z,18.27
2018-06-04T21:41:18.516Z,20.33
2018-06-04T21:43:47.475Z,16.43
2018-06-04T21:46:16.385Z,16.77
2018-06-04T21:48:45.302Z,17.87
2018-06-04T21:51:14.614Z,15.63
2018-06-04T21:53:43.730Z,15.60
2018-06-04T21:56:12.703Z,13.10
2018-06-04T21:58:42.622Z,18.93
2018-06-04T22:01:11.589Z,12.33
2018-06-04T22:03:40.561Z,15.70
2018-06-04T22:06:09.729Z,16.40
2018-06-04T22:08:38.798Z,15.33
2018-06-04T22:11:07.565Z,14.87
2018-06-04T22:13:36.460Z,11.33
2018-06-04T22:16:05.447Z,13.87
2018-06-04T22:18:34.406Z,17.80
2018-06-04T22:21:03.320Z,14.87
2018-06-04T22:23:32.393Z,14.37
2018-06-04T22:26:01.665Z,17.23
2018-06-04T22:28:30.641Z,12.83
2018-06-04T22:30:59.543Z,16.90
2018-06-04T22:33:28.606Z,14.97
2018-06-04T22:35:57.578Z,13.87
2018-06-04T22:38:26.582Z,16.73
2018-06-04T22:40:55.627Z,17.07
2018-06-04T22:43:24.978Z,14.07
2018-06-04T22:45:54.089Z,16.03
2018-06-04T22:48:23.061Z,15.63
2018-06-04T22:50:52.081Z,15.20
2018-06-04T22:53:21.160Z,15.77
2018-06-04T22:55:50.085Z,20.27
2018-06-04T22:58:19.079Z,19.10
2018-06-04T23:00:48.027Z,17.47
2018-06-04T23:03:16.966Z,17.63
2018-06-04T23:05:45.867Z,20.43
2018-06-04T23:08:14.825Z,19.87
2018-06-04T23:10:43.741Z,23.20
2018-06-04T23:13:12.673Z,20.30
2018-06-04T23:15:41.582Z,20.63
2018-06-04T23:18:10.538Z,20.90
2018-06-04T23:20:39.556Z,15.73
2018-06-04T23:23:08.530Z,19.67
2018-06-04T23:25:37.520Z,20.47
2018-06-04T23:28:06.540Z,17.97
2018-06-04T23:30:35.458Z,18.83
2018-06-04T23:33:04.145Z,16.77
2018-06-04T23:35:33.309Z,18.00
2018-06-04T23:38:02.243Z,17.70
2018-06-04T23:40:31.350Z,18.27
2018-06-04T23:43:00.389Z,20.33
2018-06-04T23:45:29.344Z,22.83
2018-06-04T23:47:58.344Z,25.70
2018-06-04T23:50:27.274Z,26.40
2018-06-04T23:52:56.279Z,26.77
2018-06-04T23:55:25.397Z,28.07
2018-06-04T23:57:54.716Z,28.20
